TimeEST,TemperatureF,Dew PointF,Humidity,Sea Level PressureIn,VisibilityMPH,Wind Direction,Wind SpeedMPH,Gust SpeedMPH,PrecipitationIn,Events,Conditions,WindDirDegrees,DateUTC
12:56 AM,24.1,17.1,75,30.02,10.0,NW,5.8,-,N/A,,Overcast,320,2013-02-16 05:56:00
1:56 AM,23.0,16.0,74,30.01,10.0,NNW,4.6,-,N/A,,Overcast,330,2013-02-16 06:56:00
2:56 AM,23.0,15.1,72,30.01,10.0,NW,4.6,-,N/A,,Overcast,320,2013-02-16 07:56:00
3:09 AM,23.0,15.8,74,29.94,10.0,North,6.9,-,N/A,,Overcast,350,2013-02-16 08:09:00
3:56 AM,21.9,14.0,72,30.00,10.0,NNW,6.9,-,N/A,,Overcast,340,2013-02-16 08:56:00
4:23 AM,21.2,12.2,68,29.94,10.0,North,8.1,-,0.00,,Overcast,350,2013-02-16 09:23:00
4:56 AM,19.9,10.0,65,30.01,10.0,NNW,6.9,-,0.00,,Overcast,340,2013-02-16 09:56:00
6:56 AM,18.0,9.0,68,30.01,10.0,North,4.6,-,N/A,,Mostly Cloudy,10,2013-02-16 11:56:00
7:56 AM,17.1,10.9,77,30.03,10.0,North,3.5,-,N/A,,Clear,10,2013-02-16 12:56:00
8:56 AM,19.9,8.1,60,30.02,10.0,NNE,4.6,-,N/A,,Clear,20,2013-02-16 13:56:00
9:56 AM,21.9,8.1,55,30.01,10.0,NNE,4.6,-,N/A,,Clear,30,2013-02-16 14:56:00
10:56 AM,23.0,8.1,53,30.00,10.0,NNW,4.6,-,N/A,,Scattered Clouds,330,2013-02-16 15:56:00
11:56 AM,24.1,8.1,51,29.97,10.0,Variable,5.8,-,N/A,,Partly Cloudy,0,2013-02-16 16:56:00
12:56 PM,25.0,7.0,46,29.94,10.0,WNW,8.1,-,N/A,,Mostly Cloudy,290,2013-02-16 17:56:00
1:56 PM,26.1,7.0,44,29.92,10.0,West,8.1,-,N/A,,Overcast,270,2013-02-16 18:56:00
2:56 PM,25.0,8.1,49,29.91,10.0,West,11.5,-,N/A,,Overcast,260,2013-02-16 19:56:00
3:56 PM,26.1,9.0,49,29.91,10.0,WNW,5.8,-,N/A,,Overcast,300,2013-02-16 20:56:00
4:32 PM,24.8,14.0,64,29.85,2.0,West,11.5,-,0.00,Snow,Light Snow,280,2013-02-16 21:32:00
4:36 PM,23.0,15.8,74,29.85,0.8,WNW,9.2,-,0.00,Snow,Light Snow,290,2013-02-16 21:36:00
4:56 PM,21.9,18.0,85,29.94,0.5,NW,8.1,-,0.00,Fog-Snow,Light Snow,310,2013-02-16 21:56:00
5:14 PM,21.2,19.4,93,29.86,0.8,NNW,6.9,-,0.00,Snow,Light Snow,330,2013-02-16 22:14:00
5:21 PM,21.2,17.6,86,29.86,1.8,NW,9.2,-,0.00,Snow,Light Snow,320,2013-02-16 22:21:00
5:24 PM,21.2,17.6,86,29.85,3.0,NNW,9.2,-,0.00,Snow,Light Snow,330,2013-02-16 22:24:00
5:32 PM,21.2,17.6,86,29.86,4.0,NNW,10.4,-,0.00,,Overcast,330,2013-02-16 22:32:00
5:53 PM,21.2,17.6,86,29.87,4.0,NW,6.9,-,0.00,Snow,Light Snow,320,2013-02-16 22:53:00
5:56 PM,21.0,17.1,85,29.95,5.0,NNW,4.6,-,0.00,Snow,Light Snow,330,2013-02-16 22:56:00
6:03 PM,21.2,15.8,80,29.87,10.0,NW,6.9,-,N/A,,Overcast,320,2013-02-16 23:03:00
6:13 PM,21.2,15.8,80,29.87,10.0,WNW,5.8,-,N/A,,Overcast,300,2013-02-16 23:13:00
6:44 PM,19.4,15.8,86,29.87,10.0,WNW,6.9,-,N/A,,Overcast,300,2013-02-16 23:44:00
6:56 PM,19.9,12.9,74,29.96,10.0,NW,6.9,-,N/A,,Overcast,310,2013-02-16 23:56:00
7:56 PM,19.0,9.0,65,29.95,10.0,NNW,5.8,-,N/A,,Clear,330,2013-02-17 00:56:00
8:56 PM,18.0,5.0,57,29.94,10.0,Calm,Calm,-,N/A,,Clear,0,2013-02-17 01:56:00
9:56 PM,16.0,5.0,62,29.93,10.0,North,5.8,-,N/A,,Clear,360,2013-02-17 02:56:00
10:56 PM,15.1,3.0,59,29.91,10.0,NNW,3.5,-,N/A,,Clear,340,2013-02-17 03:56:00
11:56 PM,14.0,3.0,62,29.90,10.0,NNW,3.5,-,N/A,,Clear,340,2013-02-17 04:56:00